createdAt,value
2019-03-13T00:01:42.846Z,7.00
2019-03-13T00:04:12.733Z,6.90
2019-03-13T00:06:42.667Z,6.90
2019-03-13T00:09:13.094Z,6.90
2019-03-13T00:11:42.974Z,7.10
2019-03-13T00:14:12.925Z,7.10
2019-03-13T00:16:42.862Z,7.00
2019-03-13T00:19:12.805Z,7.10
2019-03-13T00:21:42.749Z,7.10
2019-03-13T00:24:12.642Z,7.10
2019-03-13T00:26:42.599Z,7.10
2019-03-13T00:29:12.517Z,7.20
2019-03-13T00:31:42.737Z,7.20
2019-03-13T00:34:12.640Z,7.10
2019-03-13T00:36:42.572Z,7.00
2019-03-13T00:39:12.503Z,7.10
2019-03-13T00:41:42.704Z,7.10
2019-03-13T00:44:12.598Z,7.20
2019-03-13T00:46:42.446Z,7.20
2019-03-13T00:49:12.683Z,7.20
2019-03-13T00:51:42.621Z,7.20
2019-03-13T00:54:12.525Z,7.20
2019-03-13T00:56:42.463Z,7.20
2019-03-13T00:59:12.361Z,7.20
2019-03-13T01:02:07.080Z,7.20
2019-03-13T01:04:41.904Z,7.20
2019-03-13T01:07:12.259Z,7.20
2019-03-13T01:09:42.461Z,7.20
2019-03-13T01:12:12.398Z,7.20
2019-03-13T01:14:42.281Z,7.40
2019-03-13T01:17:12.137Z,7.60
2019-03-13T01:19:42.125Z,7.50
2019-03-13T01:22:12.386Z,7.60
2019-03-13T01:24:42.312Z,8.10
2019-03-13T01:27:12.825Z,8.90
2019-03-13T01:29:42.725Z,9.00
2019-03-13T01:32:29.632Z,9.60
2019-03-13T01:35:24.399Z,9.90
2019-03-13T01:37:54.309Z,10.30
2019-03-13T01:40:24.242Z,10.30
2019-03-13T01:42:54.162Z,10.40
2019-03-13T01:45:24.442Z,10.40
2019-03-13T01:47:54.330Z,10.30
2019-03-13T01:50:24.233Z,10.30
2019-03-13T01:52:54.418Z,10.30
2019-03-13T01:55:24.332Z,10.30
2019-03-13T01:57:54.510Z,10.10
2019-03-13T02:00:24.425Z,10.10
2019-03-13T02:02:54.292Z,10.10
2019-03-13T02:05:24.441Z,10.00
2019-03-13T02:07:54.309Z,9.90
2019-03-13T02:10:24.207Z,9.80
2019-03-13T02:12:54.129Z,9.80
2019-03-13T02:15:24.036Z,9.80
2019-03-13T02:17:53.877Z,9.80
2019-03-13T02:20:24.041Z,9.60
2019-03-13T02:22:54.025Z,9.50
2019-03-13T02:25:23.920Z,9.50
2019-03-13T02:27:53.835Z,9.40
2019-03-13T02:30:25.174Z,9.40
2019-03-13T02:32:55.087Z,9.40
2019-03-13T02:35:24.986Z,9.30
2019-03-13T02:37:54.825Z,9.20
2019-03-13T02:40:24.725Z,9.20
2019-03-13T02:42:54.628Z,9.20
2019-03-13T02:45:24.517Z,9.20
2019-03-13T02:47:54.449Z,9.00
2019-03-13T02:50:24.349Z,9.00
2019-03-13T02:55:23.690Z,8.70
2019-03-13T02:57:53.628Z,8.60
2019-03-13T03:00:37.682Z,8.30
2019-03-13T03:03:11.287Z,8.30
2019-03-13T03:05:41.176Z,8.00
2019-03-13T03:08:11.095Z,7.90
2019-03-13T03:10:40.990Z,7.80
2019-03-13T03:13:10.846Z,7.60
2019-03-13T03:18:10.047Z,7.60
2019-03-13T03:25:38.991Z,6.80
2019-03-13T03:28:08.899Z,6.80
2019-03-13T03:30:39.027Z,6.80
2019-03-13T03:33:09.583Z,6.50
2019-03-13T03:35:39.440Z,6.50
2019-03-13T03:38:10.930Z,6.40
2019-03-13T03:40:40.762Z,6.50
2019-03-13T03:43:10.981Z,6.40
2019-03-13T03:45:41.055Z,6.20
2019-03-13T03:48:10.987Z,6.20
2019-03-13T03:50:40.895Z,6.20
2019-03-13T03:53:10.817Z,6.20
2019-03-13T03:55:51.149Z,6.20
2019-03-13T03:58:20.975Z,6.00
2019-03-13T04:00:50.877Z,6.00
2019-03-13T04:03:20.780Z,5.90
2019-03-13T04:05:50.719Z,5.90
2019-03-13T04:08:20.624Z,5.90
2019-03-13T04:10:51.232Z,5.90
2019-03-13T04:13:21.146Z,5.90
2019-03-13T04:15:51.067Z,5.90
2019-03-13T04:18:20.998Z,5.90
2019-03-13T04:20:50.898Z,5.90
2019-03-13T04:25:50.014Z,5.80
2019-03-13T04:28:19.942Z,5.60
2019-03-13T04:30:49.889Z,5.90
2019-03-13T04:33:19.804Z,5.80
2019-03-13T04:35:50.086Z,5.70
2019-03-13T04:38:20.009Z,5.50
2019-03-13T04:40:49.913Z,5.70
2019-03-13T04:43:20.129Z,5.80
2019-03-13T04:45:50.337Z,5.80
2019-03-13T04:48:20.242Z,5.70
2019-03-13T04:50:50.449Z,5.60
2019-03-13T04:53:20.317Z,5.60
2019-03-13T04:55:52.555Z,5.60
2019-03-13T04:58:21.800Z,5.60
2019-03-13T05:00:51.695Z,5.40
2019-03-13T05:03:21.575Z,5.40
2019-03-13T05:06:21.090Z,5.40
2019-03-13T05:09:09.991Z,5.30
2019-03-13T05:11:39.878Z,5.30
2019-03-13T05:14:10.079Z,5.30
2019-03-13T05:16:39.969Z,5.30
2019-03-13T05:19:09.881Z,5.30
2019-03-13T05:21:39.737Z,5.30
2019-03-13T05:24:09.656Z,5.30
2019-03-13T05:26:42.718Z,5.30
2019-03-13T05:29:12.649Z,5.30
2019-03-13T05:31:42.469Z,5.30
2019-03-13T05:34:12.379Z,5.60
2019-03-13T05:36:42.270Z,5.30
2019-03-13T05:39:12.109Z,5.30
2019-03-13T05:41:42.006Z,5.30
2019-03-13T05:44:11.931Z,5.30
2019-03-13T05:46:41.747Z,5.30
2019-03-13T05:49:11.667Z,5.20
2019-03-13T05:51:41.557Z,5.20
2019-03-13T05:56:40.941Z,5.20
2019-03-13T05:59:10.930Z,5.00
2019-03-13T06:01:40.749Z,5.00
2019-03-13T06:06:39.896Z,4.80
2019-03-13T06:09:09.745Z,4.60
2019-03-13T06:11:39.569Z,4.40
2019-03-13T06:14:09.481Z,4.50
2019-03-13T06:16:39.297Z,4.30
2019-03-13T06:19:09.505Z,4.20
2019-03-13T06:21:39.425Z,4.10
2019-03-13T06:24:09.275Z,4.00
2019-03-13T06:26:39.454Z,3.90
2019-03-13T06:29:09.295Z,3.90
2019-03-13T06:31:39.220Z,3.80
2019-03-13T06:34:11.530Z,3.80
2019-03-13T06:36:40.965Z,3.70
2019-03-13T06:39:10.833Z,3.70
2019-03-13T06:41:40.725Z,3.60
2019-03-13T06:44:10.556Z,3.70
2019-03-13T06:46:40.488Z,3.70
2019-03-13T06:49:10.773Z,3.70
2019-03-13T06:51:40.690Z,3.80
2019-03-13T06:54:10.609Z,3.80
2019-03-13T06:56:40.527Z,3.80
2019-03-13T06:59:20.841Z,3.80
2019-03-13T07:01:59.772Z,3.80
2019-03-13T07:04:43.219Z,3.90
2019-03-13T07:07:32.070Z,3.90
2019-03-13T07:10:09.251Z,3.90
2019-03-13T07:13:00.877Z,4.00
2019-03-13T07:15:39.689Z,4.00
2019-03-13T07:18:31.825Z,4.00
2019-03-13T07:21:13.937Z,4.10
2019-03-13T07:23:59.257Z,4.10
2019-03-13T07:26:51.612Z,4.20
2019-03-13T07:29:52.527Z,4.30
2019-03-13T07:32:59.904Z,4.30
2019-03-13T07:35:54.938Z,4.40
2019-03-13T07:38:40.080Z,4.50
2019-03-13T07:41:28.873Z,4.70
2019-03-13T07:44:16.524Z,4.80
2019-03-13T07:47:15.470Z,4.90
2019-03-13T07:50:16.401Z,5.20
2019-03-13T07:52:56.158Z,5.40
2019-03-13T07:56:00.306Z,5.30
2019-03-13T07:58:44.122Z,5.20
2019-03-13T08:01:37.978Z,5.70
2019-03-13T08:04:32.922Z,5.60
2019-03-13T08:07:24.571Z,5.50
2019-03-13T08:10:13.662Z,5.80
2019-03-13T08:13:01.168Z,5.90
2019-03-13T08:15:48.835Z,5.90
2019-03-13T08:18:30.344Z,6.10
2019-03-13T08:21:25.330Z,6.30
2019-03-13T08:24:13.064Z,6.40
2019-03-13T08:27:01.938Z,6.20
2019-03-13T08:29:50.106Z,6.80
2019-03-13T08:32:38.972Z,6.40
2019-03-13T08:35:26.743Z,6.30
2019-03-13T08:38:08.683Z,6.70
2019-03-13T08:41:00.941Z,6.70
2019-03-13T08:44:02.395Z,7.90
2019-03-13T08:46:54.165Z,8.50
2019-03-13T08:49:31.401Z,8.00
2019-03-13T08:52:28.361Z,8.60
2019-03-13T08:55:05.633Z,9.20
2019-03-13T08:57:42.215Z,8.40
2019-03-13T09:00:25.372Z,8.60
2019-03-13T09:03:05.285Z,9.40
2019-03-13T09:05:51.756Z,10.40
2019-03-13T09:08:59.149Z,10.90
2019-03-13T09:11:46.936Z,12.20
2019-03-13T09:14:34.901Z,11.00
2019-03-13T09:17:19.905Z,12.00
2019-03-13T09:20:10.926Z,12.10
2019-03-13T09:22:59.777Z,10.90
2019-03-13T09:25:54.686Z,10.60
2019-03-13T09:28:42.521Z,11.70
2019-03-13T09:34:24.365Z,9.90
2019-03-13T09:37:03.815Z,10.40
2019-03-13T09:40:07.821Z,10.70
2019-03-13T09:42:55.102Z,10.60
2019-03-13T09:45:41.244Z,10.30
2019-03-13T09:48:30.489Z,10.30
2019-03-13T09:51:16.246Z,10.30
2019-03-13T09:56:51.502Z,10.40
2019-03-13T10:02:29.942Z,10.10
2019-03-13T10:05:37.084Z,10.80
2019-03-13T10:08:28.882Z,9.90
2019-03-13T10:13:58.213Z,10.30
2019-03-13T10:16:52.972Z,9.30
2019-03-13T10:22:19.555Z,8.50
2019-03-13T10:25:05.863Z,7.90
2019-03-13T10:27:53.546Z,7.90
2019-03-13T10:30:44.197Z,8.00
2019-03-13T10:33:35.787Z,7.80
2019-03-13T10:36:24.782Z,8.10
2019-03-13T10:39:09.130Z,9.10
2019-03-13T10:41:58.772Z,9.10
2019-03-13T10:44:45.821Z,9.40
2019-03-13T10:47:43.933Z,9.00
2019-03-13T10:50:48.385Z,9.20
2019-03-13T10:53:35.721Z,9.20
2019-03-13T10:56:36.693Z,8.60
2019-03-13T10:59:35.185Z,8.50
2019-03-13T11:02:33.562Z,9.30
2019-03-13T11:05:28.537Z,9.40
2019-03-13T11:08:23.157Z,8.50
2019-03-13T11:11:21.101Z,8.60
2019-03-13T11:14:19.161Z,8.30
2019-03-13T11:19:30.529Z,8.50
2019-03-13T11:22:09.552Z,8.40
2019-03-13T11:25:04.157Z,8.00
2019-03-13T11:28:11.134Z,7.20
2019-03-13T11:31:06.506Z,7.10
2019-03-13T11:33:50.068Z,5.20
2019-03-13T11:36:38.839Z,4.20
2019-03-13T11:39:20.218Z,4.30
2019-03-13T11:42:09.923Z,4.90
2019-03-13T11:44:47.181Z,5.50
2019-03-13T11:47:42.718Z,6.10
2019-03-13T11:50:19.395Z,6.70
2019-03-13T11:53:18.414Z,7.20
2019-03-13T11:56:22.344Z,7.20
2019-03-13T11:59:17.326Z,7.50
2019-03-13T12:02:01.872Z,6.80
2019-03-13T12:04:48.578Z,7.30
2019-03-13T12:07:36.257Z,6.90
2019-03-13T12:10:37.859Z,7.40
2019-03-13T12:13:45.230Z,8.10
2019-03-13T12:16:36.772Z,9.30
2019-03-13T12:19:25.869Z,9.10
2019-03-13T12:22:26.093Z,9.70
2019-03-13T12:25:21.189Z,9.70
2019-03-13T12:27:58.364Z,10.10
2019-03-13T12:30:45.797Z,10.10
2019-03-13T12:33:32.178Z,10.30
2019-03-13T12:36:24.026Z,11.20
2019-03-13T12:39:01.113Z,9.90
2019-03-13T12:41:43.239Z,9.50
2019-03-13T12:44:47.484Z,9.70
2019-03-13T12:47:42.558Z,9.80
2019-03-13T12:50:24.539Z,9.80
2019-03-13T12:53:12.174Z,8.90
2019-03-13T12:55:56.487Z,8.70
2019-03-13T12:58:34.430Z,8.30
2019-03-13T13:01:09.550Z,8.40
2019-03-13T13:03:52.252Z,9.60
2019-03-13T13:06:43.121Z,9.80
2019-03-13T13:09:39.019Z,9.60
2019-03-13T13:12:40.496Z,9.80
2019-03-13T13:15:34.981Z,9.70
2019-03-13T13:18:23.838Z,9.70
2019-03-13T13:20:53.766Z,10.00
2019-03-13T13:23:23.693Z,10.40
2019-03-13T13:25:53.673Z,9.70
2019-03-13T13:28:23.509Z,9.40
2019-03-13T13:30:53.312Z,9.20
2019-03-13T13:33:23.522Z,8.10
2019-03-13T13:35:53.344Z,7.70
2019-03-13T13:38:23.222Z,7.70
2019-03-13T13:40:53.173Z,7.80
2019-03-13T13:43:23.413Z,8.30
2019-03-13T13:46:03.375Z,9.20
2019-03-13T13:48:33.262Z,9.90
2019-03-13T13:51:03.230Z,8.80
2019-03-13T13:53:33.049Z,8.20
2019-03-13T13:56:02.979Z,7.50
2019-03-13T13:58:32.912Z,7.00
2019-03-13T14:01:02.864Z,6.60
2019-03-13T14:03:32.793Z,6.60
2019-03-13T14:06:02.721Z,6.40
2019-03-13T14:08:32.535Z,6.30
2019-03-13T14:11:02.464Z,6.70
2019-03-13T14:13:32.393Z,7.90
2019-03-13T14:16:02.569Z,8.70
2019-03-13T14:18:32.483Z,10.10
2019-03-13T14:21:02.862Z,9.50
2019-03-13T14:23:32.937Z,9.70
2019-03-13T14:26:03.166Z,9.80
2019-03-13T14:28:33.112Z,10.60
2019-03-13T14:31:03.458Z,9.20
2019-03-13T14:33:33.278Z,8.60
2019-03-13T14:36:03.130Z,8.50
2019-03-13T14:38:32.945Z,8.10
2019-03-13T14:41:02.869Z,8.00
2019-03-13T14:43:32.862Z,8.00
2019-03-13T14:46:02.793Z,7.60
2019-03-13T14:48:32.707Z,6.80
2019-03-13T14:51:03.751Z,6.50
2019-03-13T14:53:33.649Z,6.30
2019-03-13T14:56:03.531Z,6.10
2019-03-13T14:58:33.403Z,5.90
2019-03-13T15:01:04.043Z,5.50
2019-03-13T15:03:34.026Z,5.50
2019-03-13T15:06:03.886Z,5.50
2019-03-13T15:08:33.694Z,5.40
2019-03-13T15:11:03.614Z,5.30
2019-03-13T15:13:38.274Z,5.30
2019-03-13T15:16:08.122Z,5.20
2019-03-13T15:18:38.054Z,5.20
2019-03-13T15:23:37.202Z,5.50
2019-03-13T15:26:07.130Z,5.50
2019-03-13T15:28:37.021Z,5.60
2019-03-13T15:31:07.245Z,5.70
2019-03-13T15:33:37.147Z,5.70
2019-03-13T15:36:07.345Z,5.80
2019-03-13T15:38:37.157Z,6.50
2019-03-13T15:41:07.790Z,6.90
2019-03-13T15:43:37.775Z,7.10
2019-03-13T15:46:07.691Z,7.00
2019-03-13T15:48:37.670Z,7.10
2019-03-13T15:51:07.610Z,7.30
2019-03-13T15:53:37.487Z,7.70
2019-03-13T15:56:07.432Z,7.50
2019-03-13T15:58:37.346Z,7.60
2019-03-13T16:01:08.095Z,7.90
2019-03-13T16:03:37.997Z,7.60
2019-03-13T16:06:07.892Z,7.80
2019-03-13T16:08:38.092Z,8.00
2019-03-13T16:11:08.018Z,7.50
2019-03-13T16:13:37.892Z,7.10
2019-03-13T16:16:07.748Z,7.20
2019-03-13T16:18:38.061Z,6.90
2019-03-13T16:21:07.980Z,6.60
2019-03-13T16:23:37.862Z,6.40
2019-03-13T16:26:08.112Z,6.10
2019-03-13T16:28:38.003Z,6.10
2019-03-13T16:31:08.932Z,6.00
2019-03-13T16:33:38.748Z,6.00
2019-03-13T16:36:08.993Z,6.00
2019-03-13T16:38:38.945Z,6.00
2019-03-13T16:41:08.766Z,5.90
2019-03-13T16:43:38.731Z,5.90
2019-03-13T16:46:08.631Z,6.00
2019-03-13T16:48:38.593Z,5.90
2019-03-13T16:51:08.491Z,5.40
2019-03-13T16:56:07.600Z,4.90
2019-03-13T16:58:37.525Z,4.80
2019-03-13T17:01:07.421Z,4.70
2019-03-13T17:03:37.257Z,4.80
2019-03-13T17:06:07.487Z,4.70
2019-03-13T17:08:37.393Z,4.70
2019-03-13T17:13:36.522Z,4.60
2019-03-13T17:18:35.599Z,4.60
2019-03-13T17:21:06.033Z,4.60
2019-03-13T17:26:05.089Z,4.50
2019-03-13T17:28:35.257Z,4.60
2019-03-13T17:31:05.142Z,4.60
2019-03-13T17:33:35.058Z,4.60
2019-03-13T17:36:04.980Z,4.50
2019-03-13T17:38:34.881Z,4.50
2019-03-13T17:41:04.733Z,5.00
2019-03-13T17:53:35.062Z,4.50
2019-03-13T17:58:34.025Z,4.40
2019-03-13T18:01:04.169Z,4.30
2019-03-13T18:03:34.082Z,4.40
2019-03-13T18:06:04.097Z,4.40
2019-03-13T18:08:34.021Z,4.40
2019-03-13T18:11:03.852Z,4.40
2019-03-13T18:13:33.702Z,4.40
2019-03-13T18:16:03.619Z,4.40
2019-03-13T18:18:33.580Z,4.40
2019-03-13T18:21:03.555Z,4.30
2019-03-13T18:23:33.765Z,4.30
2019-03-13T18:26:03.670Z,4.30
2019-03-13T18:28:33.568Z,4.30
2019-03-13T18:31:03.488Z,4.20
2019-03-13T18:33:33.486Z,4.30
2019-03-13T18:36:03.381Z,4.30
2019-03-13T18:38:33.520Z,4.20
2019-03-13T18:41:04.888Z,4.20
2019-03-13T18:43:34.741Z,4.20
2019-03-13T18:46:06.133Z,4.20
2019-03-13T18:48:36.708Z,4.20
2019-03-13T18:51:06.665Z,4.20
2019-03-13T18:53:36.581Z,4.20
2019-03-13T18:56:07.048Z,4.20
2019-03-13T18:58:37.121Z,4.10
2019-03-13T19:01:06.983Z,4.10
2019-03-13T19:03:37.289Z,4.10
2019-03-13T19:06:08.436Z,4.10
2019-03-13T19:08:38.366Z,4.10
2019-03-13T19:11:08.246Z,4.10
2019-03-13T19:13:38.351Z,4.10
2019-03-13T19:16:08.328Z,4.00
2019-03-13T19:18:38.757Z,4.10
2019-03-13T19:21:10.513Z,4.10
2019-03-13T19:23:40.857Z,4.10
2019-03-13T19:26:10.772Z,4.20
2019-03-13T19:28:40.745Z,4.10
2019-03-13T19:31:10.753Z,4.10
2019-03-13T19:33:40.676Z,4.20
2019-03-13T19:36:10.552Z,4.10
2019-03-13T19:38:41.276Z,4.20
2019-03-13T19:41:11.313Z,4.20
2019-03-13T19:43:41.226Z,4.20
2019-03-13T19:46:11.088Z,4.20
2019-03-13T19:48:41.505Z,4.20
2019-03-13T19:51:11.453Z,4.20
2019-03-13T19:53:41.997Z,4.20
2019-03-13T19:56:12.183Z,4.30
2019-03-13T19:58:42.133Z,4.20
2019-03-13T20:01:12.028Z,4.30
2019-03-13T20:03:54.402Z,4.30
2019-03-13T20:06:13.479Z,4.40
2019-03-13T20:08:43.404Z,4.40
2019-03-13T20:11:13.250Z,4.40
2019-03-13T20:13:43.173Z,4.40
2019-03-13T20:16:13.517Z,4.40
2019-03-13T20:18:43.369Z,4.40
2019-03-13T20:21:13.286Z,4.40
2019-03-13T20:23:43.135Z,4.40
2019-03-13T20:26:13.692Z,4.50
2019-03-13T20:28:46.106Z,4.50
2019-03-13T20:31:15.077Z,4.50
2019-03-13T20:33:45.000Z,4.60
2019-03-13T20:36:14.909Z,4.60
2019-03-13T20:38:47.169Z,4.60
2019-03-13T20:41:16.366Z,4.70
2019-03-13T20:43:46.238Z,4.70
2019-03-13T20:46:16.483Z,4.70
2019-03-13T20:48:46.388Z,4.70
2019-03-13T20:51:16.657Z,4.70
2019-03-13T20:53:46.595Z,4.80
2019-03-13T20:56:16.726Z,4.80
2019-03-13T20:58:49.760Z,4.80
2019-03-13T21:01:22.367Z,4.80
2019-03-13T21:03:52.311Z,4.80
2019-03-13T21:06:22.471Z,4.60
2019-03-13T21:08:54.364Z,4.50
2019-03-13T21:11:24.206Z,4.50
2019-03-13T21:13:54.264Z,4.40
2019-03-13T21:16:24.198Z,4.40
2019-03-13T21:18:54.150Z,4.50
2019-03-13T21:21:24.104Z,4.50
2019-03-13T21:23:54.026Z,4.40
2019-03-13T21:26:23.869Z,4.40
2019-03-13T21:28:53.704Z,4.30
2019-03-13T21:31:23.635Z,4.20
2019-03-13T21:33:53.445Z,4.10
2019-03-13T21:36:23.377Z,4.10
2019-03-13T21:38:53.333Z,4.00
2019-03-13T21:41:23.425Z,4.00
2019-03-13T21:43:53.410Z,4.00
2019-03-13T21:46:23.323Z,4.00
2019-03-13T21:48:54.946Z,4.00
2019-03-13T21:51:24.863Z,4.00
2019-03-13T21:53:54.811Z,4.00
2019-03-13T21:56:24.710Z,4.00
2019-03-13T21:58:54.608Z,4.00
2019-03-13T22:01:24.524Z,4.00
2019-03-13T22:03:54.460Z,4.00
2019-03-13T22:06:28.929Z,4.00
2019-03-13T22:08:56.169Z,4.00
2019-03-13T22:11:26.055Z,4.00
2019-03-13T22:13:55.937Z,4.00
2019-03-13T22:16:25.822Z,4.00
2019-03-13T22:18:55.837Z,3.90
2019-03-13T22:21:25.770Z,3.90
2019-03-13T22:23:56.001Z,3.90
2019-03-13T22:26:25.928Z,3.90
2019-03-13T22:28:55.859Z,3.80
2019-03-13T22:31:25.821Z,3.80
2019-03-13T22:33:55.729Z,3.80
2019-03-13T22:36:25.719Z,3.70
2019-03-13T22:38:55.632Z,3.70
2019-03-13T22:41:25.507Z,3.70
2019-03-13T22:43:55.397Z,3.70
2019-03-13T22:46:25.327Z,3.70
2019-03-13T22:48:58.338Z,3.70
2019-03-13T22:51:26.827Z,3.60
2019-03-13T22:53:56.720Z,3.60
2019-03-13T22:56:26.735Z,3.60
2019-03-13T22:58:56.666Z,3.60
2019-03-13T23:01:26.926Z,3.60
2019-03-13T23:03:56.862Z,3.70
2019-03-13T23:06:26.752Z,3.70
2019-03-13T23:08:56.657Z,3.60
2019-03-13T23:11:26.817Z,3.70
2019-03-13T23:13:56.749Z,3.70
2019-03-13T23:16:26.666Z,3.70
2019-03-13T23:18:56.586Z,3.70
2019-03-13T23:21:26.515Z,3.80
2019-03-13T23:23:56.417Z,3.80
2019-03-13T23:26:26.293Z,3.80
2019-03-13T23:28:56.137Z,3.90
2019-03-13T23:31:26.050Z,3.90
2019-03-13T23:33:56.279Z,3.90
2019-03-13T23:36:26.166Z,3.90
2019-03-13T23:38:56.020Z,3.90
2019-03-13T23:41:25.905Z,3.90
2019-03-13T23:43:56.107Z,3.90
2019-03-13T23:46:26.049Z,3.90
2019-03-13T23:48:56.254Z,3.90
2019-03-13T23:51:26.875Z,3.90
2019-03-13T23:53:57.106Z,3.80
2019-03-13T23:56:26.914Z,3.90
2019-03-13T23:58:56.771Z,3.90
